createdAt,value
2023-04-02T00:01:29.475Z,74.34
2023-04-02T00:03:55.884Z,74.16
2023-04-02T00:06:22.200Z,73.95
2023-04-02T00:08:48.544Z,73.37
2023-04-02T00:11:14.894Z,72.68
2023-04-02T00:13:41.307Z,72.31
2023-04-02T00:16:07.618Z,72.12
2023-04-02T00:18:33.998Z,72.16
2023-04-02T00:21:00.315Z,71.69
2023-04-02T00:23:26.686Z,71.05
2023-04-02T00:25:53.043Z,72.34
2023-04-02T00:28:19.378Z,74.58
2023-04-02T00:30:45.738Z,78.14
2023-04-02T00:33:12.122Z,80.96
2023-04-02T00:35:38.524Z,82.50
2023-04-02T00:38:04.835Z,83.86
2023-04-02T00:40:31.188Z,84.78
2023-04-02T00:42:57.504Z,85.40
2023-04-02T00:45:23.858Z,85.83
2023-04-02T00:47:50.281Z,86.16
2023-04-02T00:50:16.561Z,86.29
2023-04-02T00:52:42.941Z,86.40
2023-04-02T00:55:09.290Z,86.65
2023-04-02T00:57:35.672Z,86.81
2023-04-02T01:00:01.983Z,87.16
2023-04-02T01:02:28.540Z,87.39
2023-04-02T01:04:54.669Z,87.76
2023-04-02T01:07:21.022Z,88.01
2023-04-02T01:09:47.330Z,88.39
2023-04-02T01:12:13.719Z,88.46
2023-04-02T01:14:40.073Z,88.75
2023-04-02T01:17:06.444Z,88.71
2023-04-02T01:19:32.777Z,88.73
2023-04-02T01:21:59.157Z,88.70
2023-04-02T01:24:25.462Z,88.56
2023-04-02T01:26:51.872Z,88.42
2023-04-02T01:29:18.168Z,88.22
2023-04-02T01:31:44.667Z,88.01
2023-04-02T01:34:10.863Z,87.88
2023-04-02T01:36:37.320Z,88.06
2023-04-02T01:39:03.611Z,88.05
2023-04-02T01:41:29.993Z,88.21
2023-04-02T01:43:56.306Z,88.18
2023-04-02T01:46:22.803Z,88.24
2023-04-02T01:48:49.056Z,88.25
2023-04-02T01:51:15.412Z,88.23
2023-04-02T01:53:41.785Z,88.02
2023-04-02T01:56:08.163Z,87.83
2023-04-02T01:58:34.475Z,87.72
2023-04-02T02:01:00.963Z,87.65
2023-04-02T02:03:27.176Z,87.58
2023-04-02T02:05:53.516Z,87.43
2023-04-02T02:08:19.868Z,87.43
2023-04-02T02:10:46.243Z,87.18
2023-04-02T02:13:12.565Z,87.02
2023-04-02T02:15:38.980Z,86.95
2023-04-02T02:18:05.290Z,86.68
2023-04-02T02:20:31.623Z,86.53
2023-04-02T02:22:57.982Z,86.53
2023-04-02T02:25:24.378Z,86.40
2023-04-02T02:27:50.734Z,86.14
2023-04-02T02:30:17.067Z,85.82
2023-04-02T02:32:43.450Z,85.55
2023-04-02T02:35:09.740Z,85.45
2023-04-02T02:37:36.070Z,85.53
2023-04-02T02:40:02.444Z,85.62
2023-04-02T02:42:28.868Z,85.88
2023-04-02T02:44:55.284Z,86.45
2023-04-02T02:47:21.891Z,87.28
2023-04-02T02:49:48.076Z,88.30
2023-04-02T02:52:14.444Z,88.69
2023-04-02T02:54:40.814Z,89.03
2023-04-02T02:57:07.300Z,89.20
2023-04-02T02:59:33.594Z,89.40
2023-04-02T03:01:59.894Z,89.51
2023-04-02T03:04:26.325Z,89.86
2023-04-02T03:06:52.729Z,90.04
2023-04-02T03:09:19.064Z,90.02
2023-04-02T03:11:45.368Z,90.37
2023-04-02T03:14:11.815Z,90.39
2023-04-02T03:16:38.145Z,90.34
2023-04-02T03:19:04.523Z,90.51
2023-04-02T03:21:30.842Z,90.70
2023-04-02T03:23:57.211Z,90.80
2023-04-02T03:26:23.529Z,90.58
2023-04-02T03:28:49.875Z,90.68
2023-04-02T03:31:16.293Z,91.00
2023-04-02T03:33:42.659Z,91.21
2023-04-02T03:36:09.049Z,91.50
2023-04-02T03:38:35.349Z,91.80
2023-04-02T03:41:01.703Z,91.78
2023-04-02T03:43:28.078Z,91.46
2023-04-02T03:45:54.432Z,91.17
2023-04-02T03:48:20.871Z,91.11
2023-04-02T03:50:47.226Z,91.26
2023-04-02T03:53:13.586Z,91.37
2023-04-02T03:55:39.947Z,91.60
2023-04-02T03:58:06.392Z,91.60
2023-04-02T04:00:32.692Z,91.28
2023-04-02T04:02:59.097Z,90.65
2023-04-02T04:05:25.463Z,90.20
2023-04-02T04:07:51.810Z,90.14
2023-04-02T04:10:18.172Z,90.57
2023-04-02T04:12:44.536Z,91.14
2023-04-02T04:15:10.901Z,91.27
2023-04-02T04:17:37.231Z,90.78
2023-04-02T04:20:03.613Z,90.09
2023-04-02T04:22:29.986Z,89.47
2023-04-02T04:24:56.301Z,89.21
2023-04-02T04:27:22.688Z,89.75
2023-04-02T04:29:49.125Z,89.86
2023-04-02T04:32:15.623Z,89.63
2023-04-02T04:34:41.868Z,89.60
2023-04-02T04:37:08.249Z,89.04
2023-04-02T04:39:34.568Z,88.90
2023-04-02T04:42:00.944Z,88.57
2023-04-02T04:44:27.285Z,87.98
2023-04-02T04:46:53.692Z,87.90
2023-04-02T04:49:20.055Z,86.80
2023-04-02T04:51:46.426Z,85.77
2023-04-02T04:54:12.774Z,84.91
2023-04-02T04:56:39.083Z,82.55
2023-04-02T04:59:05.830Z,80.11
2023-04-02T05:01:32.204Z,78.05
2023-04-02T05:03:58.519Z,76.41
2023-04-02T05:06:24.862Z,76.20
2023-04-02T05:08:51.265Z,74.95
2023-04-02T05:11:17.759Z,74.79
2023-04-02T05:13:44.112Z,74.68
2023-04-02T05:16:10.497Z,73.26
2023-04-02T05:18:36.806Z,72.37
2023-04-02T05:21:03.556Z,70.69
2023-04-02T05:23:29.929Z,69.42
2023-04-02T05:25:56.246Z,69.21
2023-04-02T05:28:22.558Z,68.94
2023-04-02T05:30:48.921Z,67.26
2023-04-02T05:33:22.908Z,66.30
2023-04-02T05:35:49.307Z,65.21
2023-04-02T05:38:15.699Z,64.62
2023-04-02T05:40:42.028Z,63.48
2023-04-02T05:43:08.343Z,63.63
2023-04-02T05:45:34.968Z,64.68
2023-04-02T05:48:01.075Z,63.78
2023-04-02T05:50:27.553Z,62.43
2023-04-02T05:52:56.502Z,61.84
2023-04-02T05:55:20.326Z,61.74
2023-04-02T05:58:01.321Z,60.30
2023-04-02T06:00:13.062Z,60.95
2023-04-02T06:02:39.446Z,60.41
2023-04-02T06:05:05.729Z,60.08
2023-04-02T06:07:32.042Z,60.60
2023-04-02T06:09:58.401Z,60.31
2023-04-02T06:12:24.756Z,60.03
2023-04-02T06:14:51.106Z,59.39
2023-04-02T06:17:17.501Z,57.55
2023-04-02T06:19:43.837Z,56.95
2023-04-02T06:22:10.197Z,57.91
2023-04-02T06:24:36.682Z,56.94
2023-04-02T06:27:03.008Z,57.36
2023-04-02T06:29:29.417Z,57.28
2023-04-02T06:31:55.745Z,57.35
2023-04-02T06:34:22.149Z,57.03
2023-04-02T06:36:48.767Z,56.11
2023-04-02T06:39:15.146Z,55.43
2023-04-02T06:41:41.554Z,55.40
2023-04-02T06:44:07.884Z,56.10
2023-04-02T06:46:34.352Z,52.89
2023-04-02T06:49:00.596Z,53.20
2023-04-02T06:51:26.910Z,52.51
2023-04-02T06:53:53.382Z,53.13
2023-04-02T06:56:19.668Z,52.63
2023-04-02T06:58:46.009Z,52.90
2023-04-02T07:01:12.439Z,53.52
2023-04-02T07:03:38.777Z,54.18
2023-04-02T07:06:05.178Z,51.75
2023-04-02T07:08:31.507Z,50.97
2023-04-02T07:10:57.846Z,50.20
2023-04-02T07:13:24.247Z,49.60
2023-04-02T07:15:50.637Z,48.97
2023-04-02T07:18:16.977Z,49.16
2023-04-02T07:20:43.334Z,50.09
2023-04-02T07:23:09.664Z,49.31
2023-04-02T07:25:36.311Z,48.94
2023-04-02T07:28:02.457Z,48.97
2023-04-02T07:30:29.780Z,47.65
2023-04-02T07:32:56.379Z,46.03
2023-04-02T07:35:22.735Z,46.45
2023-04-02T07:37:49.126Z,45.42
2023-04-02T07:40:15.447Z,44.27
2023-04-02T07:42:41.783Z,42.43
2023-04-02T07:45:08.443Z,43.40
2023-04-02T07:47:34.867Z,43.37
2023-04-02T07:50:01.487Z,42.46
2023-04-02T07:52:27.850Z,42.11
2023-04-02T07:54:55.188Z,41.56
2023-04-02T07:57:21.777Z,39.97
2023-04-02T07:59:47.953Z,39.21
2023-04-02T08:02:14.381Z,39.06
2023-04-02T08:04:40.780Z,39.16
2023-04-02T08:07:07.149Z,39.82
2023-04-02T08:09:33.515Z,38.93
2023-04-02T08:11:59.892Z,39.21
2023-04-02T08:14:26.315Z,37.96
2023-04-02T08:16:52.863Z,38.64
2023-04-02T08:19:19.040Z,39.37
2023-04-02T08:21:45.448Z,39.40
2023-04-02T08:24:11.818Z,38.74
2023-04-02T08:26:38.199Z,38.70
2023-04-02T08:29:04.866Z,38.34
2023-04-02T08:31:31.224Z,38.04
2023-04-02T08:33:57.585Z,38.53
2023-04-02T08:36:23.958Z,37.04
2023-04-02T08:38:50.317Z,37.22
2023-04-02T08:41:16.667Z,35.91
2023-04-02T08:43:43.032Z,36.04
2023-04-02T08:46:09.416Z,39.00
2023-04-02T08:48:35.741Z,38.45
2023-04-02T08:51:02.087Z,38.33
2023-04-02T08:53:28.411Z,38.73
2023-04-02T08:55:54.770Z,38.96
2023-04-02T08:58:21.173Z,38.27
2023-04-02T09:00:47.523Z,36.10
2023-04-02T09:03:13.959Z,35.28
2023-04-02T09:05:40.342Z,35.81
2023-04-02T09:08:06.696Z,34.54
2023-04-02T09:10:33.335Z,34.28
2023-04-02T09:13:00.707Z,34.62
2023-04-02T09:15:27.192Z,34.06
2023-04-02T09:17:54.596Z,34.91
2023-04-02T09:20:19.972Z,36.11
2023-04-02T09:22:46.381Z,36.96
2023-04-02T09:25:12.758Z,36.21
2023-04-02T09:27:39.076Z,38.90
2023-04-02T09:30:05.440Z,40.07
2023-04-02T09:32:31.782Z,40.04
2023-04-02T09:34:58.102Z,39.95
2023-04-02T09:37:24.494Z,41.21
2023-04-02T09:39:50.848Z,42.00
2023-04-02T09:42:17.162Z,42.32
2023-04-02T09:44:43.611Z,42.15
2023-04-02T09:47:09.948Z,42.54
2023-04-02T09:49:36.392Z,42.48
2023-04-02T09:52:02.697Z,41.10
2023-04-02T09:54:29.054Z,41.02
2023-04-02T09:56:55.530Z,39.09
2023-04-02T09:59:21.880Z,39.92
2023-04-02T10:01:48.207Z,41.15
2023-04-02T10:04:15.131Z,41.15
2023-04-02T10:06:41.672Z,40.54
2023-04-02T10:09:08.167Z,39.37
2023-04-02T10:11:46.414Z,38.03
2023-04-02T10:14:05.507Z,38.30
2023-04-02T10:16:31.965Z,39.08
2023-04-02T10:18:58.213Z,39.30
2023-04-02T10:21:24.646Z,39.08
2023-04-02T10:23:51.010Z,37.96
2023-04-02T10:26:17.410Z,36.08
2023-04-02T10:28:43.751Z,36.20
2023-04-02T10:31:10.341Z,38.24
2023-04-02T10:33:36.709Z,36.72
2023-04-02T10:36:03.113Z,35.50
2023-04-02T10:38:29.469Z,34.42
2023-04-02T10:40:57.007Z,34.17
2023-04-02T10:43:22.195Z,34.35
2023-04-02T10:45:49.033Z,33.46
2023-04-02T10:48:15.231Z,33.06
2023-04-02T10:50:41.649Z,34.26
2023-04-02T10:53:08.017Z,35.75
2023-04-02T10:55:34.514Z,36.65
2023-04-02T10:58:00.716Z,36.05
2023-04-02T11:00:27.136Z,34.05
2023-04-02T11:02:53.584Z,33.69
2023-04-02T11:05:19.830Z,33.61
2023-04-02T11:07:46.185Z,32.59
2023-04-02T11:10:12.759Z,32.64
2023-04-02T11:12:41.521Z,31.72
2023-04-02T11:15:05.468Z,31.86
2023-04-02T11:17:32.049Z,32.23
2023-04-02T11:19:58.388Z,33.07
2023-04-02T11:22:24.687Z,33.49
2023-04-02T11:24:51.050Z,34.08
2023-04-02T11:27:17.431Z,34.46
2023-04-02T11:29:43.809Z,34.62
2023-04-02T11:32:10.194Z,34.92
2023-04-02T11:34:36.590Z,34.96
2023-04-02T11:37:02.917Z,34.64
2023-04-02T11:39:29.767Z,35.00
2023-04-02T11:41:56.122Z,34.96
2023-04-02T11:44:22.526Z,34.84
2023-04-02T11:46:48.959Z,34.24
2023-04-02T11:49:15.340Z,34.19
2023-04-02T11:51:41.920Z,34.96
2023-04-02T11:54:08.315Z,34.39
2023-04-02T11:56:34.627Z,33.72
2023-04-02T11:59:00.988Z,32.62
2023-04-02T12:01:27.348Z,31.70
2023-04-02T12:03:53.690Z,33.09
2023-04-02T12:06:20.004Z,34.82
2023-04-02T12:08:57.055Z,35.43
2023-04-02T12:11:12.747Z,34.83
2023-04-02T12:13:39.124Z,33.92
2023-04-02T12:16:05.480Z,35.16
2023-04-02T12:18:31.863Z,36.42
2023-04-02T12:20:58.222Z,36.86
2023-04-02T12:23:24.746Z,37.44
2023-04-02T12:25:51.070Z,37.25
2023-04-02T12:28:17.472Z,35.37
2023-04-02T12:30:43.838Z,34.20
2023-04-02T12:33:10.489Z,34.00
2023-04-02T12:35:36.836Z,33.51
2023-04-02T12:38:03.203Z,33.60
2023-04-02T12:40:29.702Z,33.42
2023-04-02T12:42:56.095Z,33.77
2023-04-02T12:45:22.408Z,34.04
2023-04-02T12:47:48.832Z,33.85
2023-04-02T12:50:15.133Z,33.08
2023-04-02T12:52:41.476Z,34.02
2023-04-02T12:55:10.273Z,34.14
2023-04-02T12:57:36.647Z,35.15
2023-04-02T13:00:02.966Z,35.46
2023-04-02T13:02:29.315Z,35.51
2023-04-02T13:04:55.657Z,35.46
2023-04-02T13:07:21.995Z,36.30
2023-04-02T13:09:48.396Z,36.31
2023-04-02T13:12:14.789Z,36.70
2023-04-02T13:14:41.148Z,36.34
2023-04-02T13:17:07.535Z,36.06
2023-04-02T13:19:33.935Z,36.19
2023-04-02T13:22:00.223Z,36.05
2023-04-02T13:24:26.632Z,36.01
2023-04-02T13:26:53.337Z,36.37
2023-04-02T13:29:19.679Z,36.04
2023-04-02T13:31:46.117Z,35.99
2023-04-02T13:34:13.598Z,36.28
2023-04-02T13:36:39.944Z,35.49
2023-04-02T13:39:06.346Z,35.45
2023-04-02T13:41:32.729Z,35.66
2023-04-02T13:43:59.100Z,35.29
2023-04-02T13:46:25.665Z,35.09
2023-04-02T13:48:52.027Z,35.36
2023-04-02T13:51:18.476Z,35.13
2023-04-02T13:53:44.782Z,35.47
2023-04-02T13:56:11.199Z,34.98
2023-04-02T13:58:37.535Z,35.12
2023-04-02T14:01:04.101Z,34.90
2023-04-02T14:03:30.457Z,34.41
2023-04-02T14:05:56.781Z,34.88
2023-04-02T14:08:23.226Z,34.81
2023-04-02T14:10:49.705Z,34.64
2023-04-02T14:13:16.082Z,34.59
2023-04-02T14:15:42.454Z,34.62
2023-04-02T14:18:08.798Z,33.99
2023-04-02T14:20:35.170Z,34.60
2023-04-02T14:23:01.630Z,35.06
2023-04-02T14:25:27.990Z,34.28
2023-04-02T14:27:54.318Z,34.52
2023-04-02T14:30:21.007Z,35.13
2023-04-02T14:32:47.597Z,34.56
2023-04-02T14:35:13.996Z,35.35
2023-04-02T14:37:40.394Z,35.14
2023-04-02T14:40:06.723Z,35.22
2023-04-02T14:42:33.056Z,34.59
2023-04-02T14:44:59.482Z,34.91
2023-04-02T14:47:26.014Z,35.07
2023-04-02T14:49:52.339Z,34.89
2023-04-02T14:52:18.648Z,35.06
2023-04-02T14:54:45.157Z,34.90
2023-04-02T14:57:11.514Z,34.56
2023-04-02T14:59:37.854Z,34.91
2023-04-02T15:02:04.332Z,34.79
2023-04-02T15:04:30.623Z,34.68
2023-04-02T15:06:56.996Z,34.75
2023-04-02T15:09:23.557Z,35.27
2023-04-02T15:11:49.875Z,34.96
2023-04-02T15:14:16.380Z,34.83
2023-04-02T15:16:42.837Z,35.03
2023-04-02T15:19:09.160Z,34.99
2023-04-02T15:21:38.750Z,35.46
2023-04-02T15:24:02.018Z,35.36
2023-04-02T15:26:28.911Z,35.38
2023-04-02T15:28:55.510Z,35.29
2023-04-02T15:31:21.943Z,35.17
2023-04-02T15:33:48.319Z,35.12
2023-04-02T15:36:14.714Z,35.43
2023-04-02T15:38:41.045Z,35.71
2023-04-02T15:41:07.435Z,35.66
2023-04-02T15:43:34.028Z,35.36
2023-04-02T15:46:00.624Z,35.36
2023-04-02T15:48:26.940Z,35.56
2023-04-02T15:50:53.254Z,35.20
2023-04-02T15:53:19.749Z,35.31
2023-04-02T15:55:46.180Z,35.57
2023-04-02T15:58:12.536Z,35.32
2023-04-02T16:00:39.030Z,34.97
2023-04-02T16:03:05.446Z,34.86
2023-04-02T16:05:32.836Z,34.93
2023-04-02T16:07:59.165Z,35.07
2023-04-02T16:12:52.196Z,35.21
2023-04-02T16:15:18.608Z,35.19
2023-04-02T16:17:45.153Z,35.36
2023-04-02T16:20:11.421Z,35.44
2023-04-02T16:22:40.528Z,35.89
2023-04-02T16:25:04.670Z,35.82
2023-04-02T16:27:31.009Z,36.07
2023-04-02T16:29:57.510Z,35.95
2023-04-02T16:32:23.797Z,36.01
2023-04-02T16:34:50.096Z,36.46
2023-04-02T16:37:16.601Z,36.56
2023-04-02T16:39:43.093Z,36.59
2023-04-02T16:42:09.430Z,36.72
2023-04-02T16:44:35.861Z,36.82
2023-04-02T16:47:02.513Z,36.75
2023-04-02T16:49:28.658Z,36.68
2023-04-02T16:51:55.114Z,36.85
2023-04-02T16:54:21.437Z,37.02
2023-04-02T16:56:47.853Z,37.22
2023-04-02T16:59:14.352Z,37.33
2023-04-02T17:01:40.775Z,37.58
2023-04-02T17:04:08.813Z,37.81
2023-04-02T17:06:33.480Z,37.84
2023-04-02T17:08:59.900Z,38.03
2023-04-02T17:11:26.244Z,38.48
2023-04-02T17:13:52.565Z,38.67
2023-04-02T17:16:19.532Z,39.11
2023-04-02T17:18:45.870Z,39.56
2023-04-02T17:21:12.225Z,40.08
2023-04-02T17:23:46.229Z,40.42
2023-04-02T17:26:04.935Z,40.83
2023-04-02T17:28:31.441Z,41.01
2023-04-02T17:30:57.836Z,41.48
2023-04-02T17:33:24.215Z,41.78
2023-04-02T17:35:50.645Z,41.76
2023-04-02T17:38:17.085Z,41.92
2023-04-02T17:40:44.115Z,42.38
2023-04-02T17:43:10.508Z,42.56
2023-04-02T17:45:36.880Z,42.58
2023-04-02T17:48:03.318Z,42.71
2023-04-02T17:50:29.927Z,42.82
2023-04-02T17:52:56.360Z,43.05
2023-04-02T17:55:22.770Z,43.21
2023-04-02T17:57:49.309Z,43.57
2023-04-02T18:00:15.697Z,43.80
2023-04-02T18:02:42.345Z,43.88
2023-04-02T18:05:08.564Z,44.07
2023-04-02T18:07:34.915Z,44.33
2023-04-02T18:10:01.283Z,44.51
2023-04-02T18:12:27.654Z,44.84
2023-04-02T18:14:54.338Z,45.00
2023-04-02T18:17:20.727Z,45.12
2023-04-02T18:19:47.005Z,45.94
2023-04-02T18:22:13.364Z,45.91
2023-04-02T18:24:41.896Z,46.45
2023-04-02T18:27:08.221Z,46.72
2023-04-02T18:29:34.575Z,46.98
2023-04-02T18:32:00.933Z,47.38
2023-04-02T18:34:27.326Z,47.69
2023-04-02T18:36:53.697Z,47.75
2023-04-02T18:39:20.082Z,47.36
2023-04-02T18:41:46.423Z,47.06
2023-04-02T18:44:12.777Z,47.21
2023-04-02T18:46:39.347Z,47.13
2023-04-02T18:49:05.589Z,47.32
2023-04-02T18:51:31.926Z,47.22
2023-04-02T18:53:58.301Z,47.45
2023-04-02T18:56:24.620Z,47.32
2023-04-02T18:58:51.063Z,47.29
2023-04-02T19:01:17.504Z,47.45
2023-04-02T19:03:43.873Z,47.30
2023-04-02T19:06:10.149Z,47.35
2023-04-02T19:08:36.536Z,47.35
2023-04-02T19:11:02.935Z,47.72
2023-04-02T19:13:29.358Z,47.59
2023-04-02T19:15:55.718Z,47.75
2023-04-02T19:18:22.087Z,48.03
2023-04-02T19:20:48.471Z,48.48
2023-04-02T19:23:14.809Z,48.39
2023-04-02T19:25:41.249Z,48.58
2023-04-02T19:28:07.580Z,48.79
2023-04-02T19:30:33.929Z,48.88
2023-04-02T19:33:00.378Z,49.05
2023-04-02T19:35:29.090Z,49.30
2023-04-02T19:37:56.464Z,49.41
2023-04-02T19:40:22.842Z,49.56
2023-04-02T19:42:49.177Z,49.71
2023-04-02T19:45:15.774Z,49.92
2023-04-02T19:47:42.256Z,50.00
2023-04-02T19:50:08.571Z,50.02
2023-04-02T19:52:34.949Z,50.44
2023-04-02T19:55:02.478Z,50.85
2023-04-02T19:57:29.347Z,51.07
2023-04-02T19:59:55.674Z,51.52
2023-04-02T20:02:22.268Z,51.35
2023-04-02T20:04:48.477Z,51.43
2023-04-02T20:07:14.810Z,51.43
2023-04-02T20:09:41.211Z,51.65
2023-04-02T20:12:07.585Z,51.88
2023-04-02T20:14:33.994Z,52.00
2023-04-02T20:17:00.389Z,52.20
2023-04-02T20:19:27.157Z,52.42
2023-04-02T20:21:53.608Z,52.33
2023-04-02T20:24:20.210Z,52.62
2023-04-02T20:26:46.596Z,52.99
2023-04-02T20:29:12.980Z,53.18
2023-04-02T20:31:39.293Z,53.43
2023-04-02T20:34:05.801Z,53.82
2023-04-02T20:36:32.018Z,54.01
2023-04-02T20:38:58.379Z,54.20
2023-04-02T20:41:24.749Z,54.61
2023-04-02T20:43:51.131Z,55.00
2023-04-02T20:46:17.501Z,55.29
2023-04-02T20:48:43.921Z,55.80
2023-04-02T20:51:10.292Z,56.17
2023-04-02T20:53:36.607Z,56.47
2023-04-02T20:56:02.918Z,56.76
2023-04-02T20:58:29.350Z,57.11
2023-04-02T21:00:55.699Z,57.18
2023-04-02T21:03:22.177Z,57.61
2023-04-02T21:05:48.550Z,57.79
2023-04-02T21:08:14.929Z,57.92
2023-04-02T21:10:41.280Z,58.29
2023-04-02T21:13:07.633Z,58.02
2023-04-02T21:15:34.474Z,58.27
2023-04-02T21:18:00.642Z,58.50
2023-04-02T21:20:26.938Z,58.33
2023-04-02T21:22:53.313Z,58.38
2023-04-02T21:25:19.622Z,58.77
2023-04-02T21:27:45.976Z,58.95
2023-04-02T21:30:12.344Z,59.36
2023-04-02T21:32:38.772Z,59.47
2023-04-02T21:35:05.135Z,59.68
2023-04-02T21:37:31.465Z,59.69
2023-04-02T21:39:57.827Z,59.78
2023-04-02T21:42:24.380Z,59.81
2023-04-02T21:44:50.736Z,59.86
2023-04-02T21:47:17.179Z,60.08
2023-04-02T21:49:43.442Z,60.41
2023-04-02T21:52:09.830Z,60.41
2023-04-02T21:54:36.195Z,60.55
2023-04-02T21:57:02.642Z,60.52
2023-04-02T21:59:28.989Z,60.62
2023-04-02T22:01:55.470Z,60.81
2023-04-02T22:04:21.900Z,60.96
2023-04-02T22:06:48.255Z,61.40
2023-04-02T22:09:14.875Z,61.32
2023-04-02T22:11:41.216Z,61.11
2023-04-02T22:14:07.539Z,61.53
2023-04-02T22:16:33.966Z,61.67
2023-04-02T22:19:00.246Z,61.63
2023-04-02T22:21:26.602Z,62.15
2023-04-02T22:23:52.929Z,62.54
2023-04-02T22:26:19.515Z,62.96
2023-04-02T22:28:45.846Z,63.26
2023-04-02T22:31:12.230Z,63.48
2023-04-02T22:33:38.599Z,63.20
2023-04-02T22:36:05.050Z,63.20
2023-04-02T22:38:31.279Z,63.12
2023-04-02T22:40:57.674Z,63.49
2023-04-02T22:43:24.030Z,64.37
2023-04-02T22:45:50.428Z,64.71
2023-04-02T22:48:16.866Z,65.26
2023-04-02T22:50:43.207Z,65.75
2023-04-02T22:53:09.584Z,66.21
2023-04-02T22:55:35.926Z,66.57
2023-04-02T22:58:02.283Z,67.28
2023-04-02T23:00:28.612Z,68.02
2023-04-02T23:02:55.024Z,68.52
2023-04-02T23:05:21.430Z,68.69
2023-04-02T23:07:47.730Z,68.99
2023-04-02T23:10:14.125Z,69.43
2023-04-02T23:12:41.472Z,69.14
2023-04-02T23:15:07.865Z,69.27
2023-04-02T23:17:34.293Z,69.78
2023-04-02T23:20:00.588Z,70.10
2023-04-02T23:22:26.946Z,70.52
2023-04-02T23:24:53.316Z,71.54
2023-04-02T23:27:19.645Z,71.94
2023-04-02T23:29:46.300Z,71.95
2023-04-02T23:32:12.608Z,72.22
2023-04-02T23:34:38.988Z,72.33
2023-04-02T23:37:05.335Z,72.64
2023-04-02T23:39:31.715Z,73.19
2023-04-02T23:41:58.073Z,73.64
2023-04-02T23:44:24.457Z,73.79
2023-04-02T23:46:50.833Z,74.35
2023-04-02T23:49:17.129Z,74.58
2023-04-02T23:51:43.496Z,74.63
2023-04-02T23:54:09.841Z,74.90
2023-04-02T23:56:36.171Z,74.86
2023-04-02T23:59:02.512Z,75.00
